sensor_id;sensor_type;location;lat;lon;timestamp;temperature;humidity
25328;DHT22;13279;51.300;12.394;2023-02-01T00:01:06;4.70;99.90
25328;DHT22;13279;51.300;12.394;2023-02-01T00:03:33;4.60;99.90
25328;DHT22;13279;51.300;12.394;2023-02-01T00:06:01;4.60;99.90
25328;DHT22;13279;51.300;12.394;2023-02-01T00:08:29;4.60;99.90
25328;DHT22;13279;51.300;12.394;2023-02-01T00:11:02;4.60;99.90
25328;DHT22;13279;51.300;12.394;2023-02-01T00:13:32;4.50;99.90
25328;DHT22;13279;51.300;12.394;2023-02-01T00:16:04;4.50;99.90
25328;DHT22;13279;51.300;12.394;2023-02-01T00:18:32;4.50;99.90
25328;DHT22;13279;51.300;12.394;2023-02-01T00:20:59;4.40;99.90
25328;DHT22;13279;51.300;12.394;2023-02-01T00:23:27;4.50;99.90
25328;DHT22;13279;51.300;12.394;2023-02-01T00:25:54;4.70;99.90
25328;DHT22;13279;51.300;12.394;2023-02-01T00:28:23;4.50;99.90
25328;DHT22;13279;51.300;12.394;2023-02-01T00:30:56;4.50;99.90
25328;DHT22;13279;51.300;12.394;2023-02-01T00:33:24;4.50;99.90
25328;DHT22;13279;51.300;12.394;2023-02-01T00:35:51;4.60;99.90
25328;DHT22;13279;51.300;12.394;2023-02-01T00:38:23;4.50;99.90
25328;DHT22;13279;51.300;12.394;2023-02-01T00:40:50;4.50;99.90
25328;DHT22;13279;51.300;12.394;2023-02-01T00:43:18;4.50;99.90
25328;DHT22;13279;51.300;12.394;2023-02-01T00:45:47;4.50;99.90
25328;DHT22;13279;51.300;12.394;2023-02-01T00:48:14;4.40;99.90
25328;DHT22;13279;51.300;12.394;2023-02-01T00:50:42;4.40;99.90
25328;DHT22;13279;51.300;12.394;2023-02-01T00:53:10;4.40;99.90
25328;DHT22;13279;51.300;12.394;2023-02-01T00:55:39;4.40;99.90
25328;DHT22;13279;51.300;12.394;2023-02-01T00:58:06;4.30;99.90
25328;DHT22;13279;51.300;12.394;2023-02-01T01:00:35;4.30;99.90
25328;DHT22;13279;51.300;12.394;2023-02-01T01:03:04;4.30;99.90
25328;DHT22;13279;51.300;12.394;2023-02-01T01:05:44;4.30;99.90
25328;DHT22;13279;51.300;12.394;2023-02-01T01:08:11;4.30;99.90
25328;DHT22;13279;51.300;12.394;2023-02-01T01:10:38;4.30;99.90
25328;DHT22;13279;51.300;12.394;2023-02-01T01:13:06;4.40;99.90
25328;DHT22;13279;51.300;12.394;2023-02-01T01:15:36;4.40;99.90
25328;DHT22;13279;51.300;12.394;2023-02-01T01:18:06;4.40;99.90
25328;DHT22;13279;51.300;12.394;2023-02-01T01:20:35;4.40;99.90
25328;DHT22;13279;51.300;12.394;2023-02-01T01:23:03;4.40;99.90
25328;DHT22;13279;51.300;12.394;2023-02-01T01:25:30;4.40;99.90
25328;DHT22;13279;51.300;12.394;2023-02-01T01:27:58;4.40;99.90
25328;DHT22;13279;51.300;12.394;2023-02-01T01:30:25;4.40;99.90
25328;DHT22;13279;51.300;12.394;2023-02-01T01:32:53;4.40;99.90
25328;DHT22;13279;51.300;12.394;2023-02-01T01:35:22;4.40;99.90
25328;DHT22;13279;51.300;12.394;2023-02-01T01:37:49;4.50;99.90
25328;DHT22;13279;51.300;12.394;2023-02-01T01:40:17;4.50;99.90
25328;DHT22;13279;51.300;12.394;2023-02-01T01:42:45;4.50;99.90
25328;DHT22;13279;51.300;12.394;2023-02-01T01:45:22;4.50;99.90
25328;DHT22;13279;51.300;12.394;2023-02-01T01:47:52;4.50;99.90
25328;DHT22;13279;51.300;12.394;2023-02-01T01:50:25;4.50;99.90
25328;DHT22;13279;51.300;12.394;2023-02-01T01:52:55;4.50;99.90
25328;DHT22;13279;51.300;12.394;2023-02-01T01:55:24;4.60;99.90
25328;DHT22;13279;51.300;12.394;2023-02-01T01:57:57;4.50;99.90
25328;DHT22;13279;51.300;12.394;2023-02-01T02:00:26;4.50;99.90
25328;DHT22;13279;51.300;12.394;2023-02-01T02:02:59;4.60;99.90
25328;DHT22;13279;51.300;12.394;2023-02-01T02:05:31;4.60;99.90
25328;DHT22;13279;51.300;12.394;2023-02-01T02:07:59;4.60;99.90
25328;DHT22;13279;51.300;12.394;2023-02-01T02:10:27;4.60;99.90
25328;DHT22;13279;51.300;12.394;2023-02-01T02:13:10;4.60;99.90
25328;DHT22;13279;51.300;12.394;2023-02-01T02:15:43;4.60;99.90
25328;DHT22;13279;51.300;12.394;2023-02-01T02:18:17;4.60;99.90
25328;DHT22;13279;51.300;12.394;2023-02-01T02:20:58;4.60;99.90
25328;DHT22;13279;51.300;12.394;2023-02-01T02:24:03;4.70;99.90
25328;DHT22;13279;51.300;12.394;2023-02-01T02:26:49;4.70;99.90
25328;DHT22;13279;51.300;12.394;2023-02-01T02:29:39;4.70;99.90
25328;DHT22;13279;51.300;12.394;2023-02-01T02:32:24;4.70;99.90
25328;DHT22;13279;51.300;12.394;2023-02-01T02:34:59;4.70;99.90
25328;DHT22;13279;51.300;12.394;2023-02-01T02:37:37;4.80;99.90
25328;DHT22;13279;51.300;12.394;2023-02-01T02:40:11;4.80;99.90
25328;DHT22;13279;51.300;12.394;2023-02-01T02:42:45;4.80;99.90
25328;DHT22;13279;51.300;12.394;2023-02-01T02:45:38;4.80;99.90
25328;DHT22;13279;51.300;12.394;2023-02-01T02:48:28;4.80;99.90
25328;DHT22;13279;51.300;12.394;2023-02-01T02:51:03;4.80;99.90
25328;DHT22;13279;51.300;12.394;2023-02-01T02:53:56;4.80;99.90
25328;DHT22;13279;51.300;12.394;2023-02-01T02:56:42;4.80;99.90
25328;DHT22;13279;51.300;12.394;2023-02-01T02:59:28;4.70;99.90
25328;DHT22;13279;51.300;12.394;2023-02-01T03:02:16;4.60;99.90
25328;DHT22;13279;51.300;12.394;2023-02-01T03:05:01;4.70;99.90
25328;DHT22;13279;51.300;12.394;2023-02-01T03:08:02;4.70;99.90
25328;DHT22;13279;51.300;12.394;2023-02-01T03:10:35;4.80;99.90
25328;DHT22;13279;51.300;12.394;2023-02-01T03:13:08;4.80;99.90
25328;DHT22;13279;51.300;12.394;2023-02-01T03:15:39;4.80;99.90
25328;DHT22;13279;51.300;12.394;2023-02-01T03:18:13;4.80;99.90
25328;DHT22;13279;51.300;12.394;2023-02-01T03:20:46;4.80;99.90
25328;DHT22;13279;51.300;12.394;2023-02-01T03:23:19;4.80;99.90
25328;DHT22;13279;51.300;12.394;2023-02-01T03:25:50;4.90;99.90
25328;DHT22;13279;51.300;12.394;2023-02-01T03:28:23;4.90;99.90
25328;DHT22;13279;51.300;12.394;2023-02-01T03:30:52;5.00;99.90
25328;DHT22;13279;51.300;12.394;2023-02-01T03:33:23;5.10;99.90
25328;DHT22;13279;51.300;12.394;2023-02-01T03:36:01;5.00;99.90
25328;DHT22;13279;51.300;12.394;2023-02-01T03:38:34;5.00;99.90
25328;DHT22;13279;51.300;12.394;2023-02-01T03:41:13;5.00;99.90
25328;DHT22;13279;51.300;12.394;2023-02-01T03:43:51;5.00;99.90
25328;DHT22;13279;51.300;12.394;2023-02-01T03:46:24;5.00;99.90
25328;DHT22;13279;51.300;12.394;2023-02-01T03:48:54;5.10;99.90
25328;DHT22;13279;51.300;12.394;2023-02-01T03:51:23;5.10;99.90
25328;DHT22;13279;51.300;12.394;2023-02-01T03:53:53;5.10;99.90
25328;DHT22;13279;51.300;12.394;2023-02-01T03:56:23;5.00;99.90
25328;DHT22;13279;51.300;12.394;2023-02-01T03:58:52;5.00;99.90
25328;DHT22;13279;51.300;12.394;2023-02-01T04:01:32;5.10;99.90
25328;DHT22;13279;51.300;12.394;2023-02-01T04:04:00;5.10;99.90
25328;DHT22;13279;51.300;12.394;2023-02-01T04:06:28;5.00;99.90
25328;DHT22;13279;51.300;12.394;2023-02-01T04:09:01;5.00;99.90
25328;DHT22;13279;51.300;12.394;2023-02-01T04:11:29;5.00;99.90
25328;DHT22;13279;51.300;12.394;2023-02-01T04:13:56;5.00;99.90
25328;DHT22;13279;51.300;12.394;2023-02-01T04:16:23;5.10;99.90
25328;DHT22;13279;51.300;12.394;2023-02-01T04:18:51;5.00;99.90
25328;DHT22;13279;51.300;12.394;2023-02-01T04:21:19;5.10;99.90
25328;DHT22;13279;51.300;12.394;2023-02-01T04:23:47;5.00;99.90
25328;DHT22;13279;51.300;12.394;2023-02-01T04:26:15;5.00;99.90
25328;DHT22;13279;51.300;12.394;2023-02-01T04:28:43;5.00;99.90
25328;DHT22;13279;51.300;12.394;2023-02-01T04:31:13;5.00;99.90
25328;DHT22;13279;51.300;12.394;2023-02-01T04:33:41;5.00;99.90
25328;DHT22;13279;51.300;12.394;2023-02-01T04:36:09;5.00;99.90
25328;DHT22;13279;51.300;12.394;2023-02-01T04:38:37;5.00;99.90
25328;DHT22;13279;51.300;12.394;2023-02-01T04:41:04;5.00;99.90
25328;DHT22;13279;51.300;12.394;2023-02-01T04:43:33;5.00;99.90
25328;DHT22;13279;51.300;12.394;2023-02-01T04:46:00;5.00;99.90
25328;DHT22;13279;51.300;12.394;2023-02-01T04:48:30;5.00;99.90
25328;DHT22;13279;51.300;12.394;2023-02-01T04:50:58;5.10;99.90
25328;DHT22;13279;51.300;12.394;2023-02-01T04:53:25;5.10;99.90
25328;DHT22;13279;51.300;12.394;2023-02-01T04:55:52;5.00;99.90
25328;DHT22;13279;51.300;12.394;2023-02-01T04:58:20;5.00;99.90
25328;DHT22;13279;51.300;12.394;2023-02-01T05:00:48;5.00;99.90
25328;DHT22;13279;51.300;12.394;2023-02-01T05:03:17;5.00;99.90
25328;DHT22;13279;51.300;12.394;2023-02-01T05:05:46;5.00;99.90
25328;DHT22;13279;51.300;12.394;2023-02-01T05:08:14;5.00;99.90
25328;DHT22;13279;51.300;12.394;2023-02-01T05:10:41;5.00;99.90
25328;DHT22;13279;51.300;12.394;2023-02-01T05:13:10;5.00;99.90
25328;DHT22;13279;51.300;12.394;2023-02-01T05:15:56;5.00;99.90
25328;DHT22;13279;51.300;12.394;2023-02-01T05:18:23;4.90;99.90
25328;DHT22;13279;51.300;12.394;2023-02-01T05:20:51;5.00;99.90
25328;DHT22;13279;51.300;12.394;2023-02-01T05:23:19;4.90;99.90
25328;DHT22;13279;51.300;12.394;2023-02-01T05:25:46;4.90;99.90
25328;DHT22;13279;51.300;12.394;2023-02-01T05:28:14;4.90;99.90
25328;DHT22;13279;51.300;12.394;2023-02-01T05:30:41;4.90;99.90
25328;DHT22;13279;51.300;12.394;2023-02-01T05:33:10;4.90;99.90
25328;DHT22;13279;51.300;12.394;2023-02-01T05:35:37;4.90;99.90
25328;DHT22;13279;51.300;12.394;2023-02-01T05:38:05;4.80;99.90
25328;DHT22;13279;51.300;12.394;2023-02-01T05:40:32;4.80;99.90
25328;DHT22;13279;51.300;12.394;2023-02-01T05:42:59;4.80;99.90
25328;DHT22;13279;51.300;12.394;2023-02-01T05:45:27;4.80;99.90
25328;DHT22;13279;51.300;12.394;2023-02-01T05:47:54;4.80;99.90
25328;DHT22;13279;51.300;12.394;2023-02-01T05:50:23;4.80;99.90
25328;DHT22;13279;51.300;12.394;2023-02-01T05:52:56;4.80;99.90
25328;DHT22;13279;51.300;12.394;2023-02-01T05:55:23;4.80;99.90
25328;DHT22;13279;51.300;12.394;2023-02-01T05:57:51;4.70;99.90
25328;DHT22;13279;51.300;12.394;2023-02-01T06:00:19;4.70;99.90
25328;DHT22;13279;51.300;12.394;2023-02-01T06:02:46;4.70;99.90
25328;DHT22;13279;51.300;12.394;2023-02-01T06:05:14;4.70;99.90
25328;DHT22;13279;51.300;12.394;2023-02-01T06:07:43;4.70;99.90
25328;DHT22;13279;51.300;12.394;2023-02-01T06:10:11;4.70;99.90
25328;DHT22;13279;51.300;12.394;2023-02-01T06:12:38;4.70;99.90
25328;DHT22;13279;51.300;12.394;2023-02-01T06:15:07;4.80;99.90
25328;DHT22;13279;51.300;12.394;2023-02-01T06:17:34;4.80;99.90
25328;DHT22;13279;51.300;12.394;2023-02-01T06:20:02;4.80;99.90
25328;DHT22;13279;51.300;12.394;2023-02-01T06:22:36;4.80;99.90
25328;DHT22;13279;51.300;12.394;2023-02-01T06:25:06;4.80;99.90
25328;DHT22;13279;51.300;12.394;2023-02-01T06:27:34;4.80;99.90
25328;DHT22;13279;51.300;12.394;2023-02-01T06:30:05;4.90;99.90
25328;DHT22;13279;51.300;12.394;2023-02-01T06:32:33;4.80;99.90
25328;DHT22;13279;51.300;12.394;2023-02-01T06:35:00;4.90;99.90
25328;DHT22;13279;51.300;12.394;2023-02-01T06:37:28;4.90;99.90
25328;DHT22;13279;51.300;12.394;2023-02-01T06:39:56;4.90;99.90
25328;DHT22;13279;51.300;12.394;2023-02-01T06:42:25;4.90;99.90
25328;DHT22;13279;51.300;12.394;2023-02-01T06:44:52;4.90;99.90
25328;DHT22;13279;51.300;12.394;2023-02-01T06:47:20;4.90;99.90
25328;DHT22;13279;51.300;12.394;2023-02-01T06:49:47;4.90;99.90
25328;DHT22;13279;51.300;12.394;2023-02-01T06:52:14;4.90;99.90
25328;DHT22;13279;51.300;12.394;2023-02-01T06:54:41;4.90;99.90
25328;DHT22;13279;51.300;12.394;2023-02-01T06:57:09;5.00;99.90
25328;DHT22;13279;51.300;12.394;2023-02-01T06:59:38;5.00;99.90
25328;DHT22;13279;51.300;12.394;2023-02-01T07:02:05;5.00;99.90
25328;DHT22;13279;51.300;12.394;2023-02-01T07:04:33;5.00;99.90
25328;DHT22;13279;51.300;12.394;2023-02-01T07:07:00;5.10;99.90
25328;DHT22;13279;51.300;12.394;2023-02-01T07:09:28;5.10;99.90
25328;DHT22;13279;51.300;12.394;2023-02-01T07:11:55;5.10;99.90
25328;DHT22;13279;51.300;12.394;2023-02-01T07:14:22;5.10;99.90
25328;DHT22;13279;51.300;12.394;2023-02-01T07:16:51;5.10;99.90
25328;DHT22;13279;51.300;12.394;2023-02-01T07:19:19;5.10;99.90
25328;DHT22;13279;51.300;12.394;2023-02-01T07:21:46;5.10;99.90
25328;DHT22;13279;51.300;12.394;2023-02-01T07:24:14;5.10;99.90
25328;DHT22;13279;51.300;12.394;2023-02-01T07:26:41;5.10;99.90
25328;DHT22;13279;51.300;12.394;2023-02-01T07:29:08;5.20;99.90
25328;DHT22;13279;51.300;12.394;2023-02-01T07:31:36;5.30;99.90
25328;DHT22;13279;51.300;12.394;2023-02-01T07:34:05;5.30;99.90
25328;DHT22;13279;51.300;12.394;2023-02-01T07:36:32;5.30;99.90
25328;DHT22;13279;51.300;12.394;2023-02-01T07:39:00;5.30;99.90
25328;DHT22;13279;51.300;12.394;2023-02-01T07:41:28;5.30;99.90
25328;DHT22;13279;51.300;12.394;2023-02-01T07:43:55;5.40;99.90
25328;DHT22;13279;51.300;12.394;2023-02-01T07:46:23;5.40;99.90
25328;DHT22;13279;51.300;12.394;2023-02-01T07:48:51;5.40;99.90
25328;DHT22;13279;51.300;12.394;2023-02-01T07:51:20;5.40;99.90
25328;DHT22;13279;51.300;12.394;2023-02-01T07:53:47;5.50;99.90
25328;DHT22;13279;51.300;12.394;2023-02-01T07:56:17;5.50;99.90
25328;DHT22;13279;51.300;12.394;2023-02-01T07:58:47;5.50;99.90
25328;DHT22;13279;51.300;12.394;2023-02-01T08:01:16;5.60;99.90
25328;DHT22;13279;51.300;12.394;2023-02-01T08:03:45;5.60;99.90
25328;DHT22;13279;51.300;12.394;2023-02-01T08:06:13;5.60;99.90
25328;DHT22;13279;51.300;12.394;2023-02-01T08:08:42;5.60;99.90
25328;DHT22;13279;51.300;12.394;2023-02-01T08:11:11;5.60;99.90
25328;DHT22;13279;51.300;12.394;2023-02-01T08:13:38;5.60;99.90
25328;DHT22;13279;51.300;12.394;2023-02-01T08:16:08;5.50;99.90
25328;DHT22;13279;51.300;12.394;2023-02-01T08:18:37;5.50;99.90
25328;DHT22;13279;51.300;12.394;2023-02-01T08:21:05;5.50;99.90
25328;DHT22;13279;51.300;12.394;2023-02-01T08:23:34;5.50;99.90
25328;DHT22;13279;51.300;12.394;2023-02-01T08:26:07;5.50;99.90
25328;DHT22;13279;51.300;12.394;2023-02-01T08:28:36;5.50;99.90
25328;DHT22;13279;51.300;12.394;2023-02-01T08:31:07;5.40;99.90
25328;DHT22;13279;51.300;12.394;2023-02-01T08:33:35;5.40;99.90
25328;DHT22;13279;51.300;12.394;2023-02-01T08:36:06;5.40;99.90
25328;DHT22;13279;51.300;12.394;2023-02-01T08:38:35;5.30;99.90
25328;DHT22;13279;51.300;12.394;2023-02-01T08:41:07;5.20;99.90
25328;DHT22;13279;51.300;12.394;2023-02-01T08:43:35;5.10;99.90
25328;DHT22;13279;51.300;12.394;2023-02-01T08:46:03;5.00;99.90
25328;DHT22;13279;51.300;12.394;2023-02-01T08:48:30;4.90;99.90
25328;DHT22;13279;51.300;12.394;2023-02-01T08:51:01;4.80;99.90
25328;DHT22;13279;51.300;12.394;2023-02-01T08:53:29;4.60;99.90
25328;DHT22;13279;51.300;12.394;2023-02-01T08:55:57;4.40;99.90
25328;DHT22;13279;51.300;12.394;2023-02-01T08:58:26;4.20;99.90
25328;DHT22;13279;51.300;12.394;2023-02-01T09:00:53;4.10;99.90
25328;DHT22;13279;51.300;12.394;2023-02-01T09:03:21;4.10;99.90
25328;DHT22;13279;51.300;12.394;2023-02-01T09:05:49;4.10;99.90
25328;DHT22;13279;51.300;12.394;2023-02-01T09:08:16;4.00;99.90
25328;DHT22;13279;51.300;12.394;2023-02-01T09:10:46;4.10;99.90
25328;DHT22;13279;51.300;12.394;2023-02-01T09:13:13;4.00;99.90
25328;DHT22;13279;51.300;12.394;2023-02-01T09:15:42;4.00;99.90
25328;DHT22;13279;51.300;12.394;2023-02-01T09:18:10;4.10;99.90
25328;DHT22;13279;51.300;12.394;2023-02-01T09:20:37;4.10;99.90
25328;DHT22;13279;51.300;12.394;2023-02-01T09:23:05;4.00;99.90
25328;DHT22;13279;51.300;12.394;2023-02-01T09:25:33;4.10;99.90
25328;DHT22;13279;51.300;12.394;2023-02-01T09:28:01;4.10;99.90
25328;DHT22;13279;51.300;12.394;2023-02-01T09:30:33;4.20;99.90
25328;DHT22;13279;51.300;12.394;2023-02-01T09:33:01;4.20;99.90
25328;DHT22;13279;51.300;12.394;2023-02-01T09:35:29;4.20;99.90
25328;DHT22;13279;51.300;12.394;2023-02-01T09:37:57;4.20;99.90
25328;DHT22;13279;51.300;12.394;2023-02-01T09:40:24;4.30;99.90
25328;DHT22;13279;51.300;12.394;2023-02-01T09:43:12;4.30;99.90
25328;DHT22;13279;51.300;12.394;2023-02-01T09:45:51;4.40;99.90
25328;DHT22;13279;51.300;12.394;2023-02-01T09:48:26;4.50;99.90
25328;DHT22;13279;51.300;12.394;2023-02-01T09:50:56;4.50;99.90
25328;DHT22;13279;51.300;12.394;2023-02-01T09:53:28;4.70;99.90
25328;DHT22;13279;51.300;12.394;2023-02-01T09:55:59;4.80;99.90
25328;DHT22;13279;51.300;12.394;2023-02-01T09:58:33;4.80;99.90
25328;DHT22;13279;51.300;12.394;2023-02-01T10:01:03;4.90;99.90
25328;DHT22;13279;51.300;12.394;2023-02-01T10:03:36;5.00;99.90
25328;DHT22;13279;51.300;12.394;2023-02-01T10:06:29;5.00;99.90
25328;DHT22;13279;51.300;12.394;2023-02-01T10:09:17;5.00;99.90
25328;DHT22;13279;51.300;12.394;2023-02-01T10:11:59;5.00;99.90
25328;DHT22;13279;51.300;12.394;2023-02-01T10:14:43;5.10;99.90
25328;DHT22;13279;51.300;12.394;2023-02-01T10:17:24;5.10;99.90
25328;DHT22;13279;51.300;12.394;2023-02-01T10:20:03;5.20;99.90
25328;DHT22;13279;51.300;12.394;2023-02-01T10:22:39;5.30;99.90
25328;DHT22;13279;51.300;12.394;2023-02-01T10:25:14;5.30;99.90
25328;DHT22;13279;51.300;12.394;2023-02-01T10:27:45;5.40;99.90
25328;DHT22;13279;51.300;12.394;2023-02-01T10:30:18;5.40;99.90
25328;DHT22;13279;51.300;12.394;2023-02-01T10:32:48;5.30;99.90
25328;DHT22;13279;51.300;12.394;2023-02-01T10:35:22;5.40;99.90
25328;DHT22;13279;51.300;12.394;2023-02-01T10:37:52;5.40;99.90
25328;DHT22;13279;51.300;12.394;2023-02-01T10:40:22;5.50;99.90
25328;DHT22;13279;51.300;12.394;2023-02-01T10:43:00;5.80;99.90
25328;DHT22;13279;51.300;12.394;2023-02-01T10:45:30;6.10;99.90
25328;DHT22;13279;51.300;12.394;2023-02-01T10:47:59;6.30;99.90
25328;DHT22;13279;51.300;12.394;2023-02-01T10:51:00;6.30;99.90
25328;DHT22;13279;51.300;12.394;2023-02-01T10:53:44;6.30;99.90
25328;DHT22;13279;51.300;12.394;2023-02-01T10:56:13;6.30;99.90
25328;DHT22;13279;51.300;12.394;2023-02-01T10:58:46;6.40;1.00
25328;DHT22;13279;51.300;12.394;2023-02-01T11:01:17;6.40;1.00
25328;DHT22;13279;51.300;12.394;2023-02-01T11:03:52;6.50;1.00
25328;DHT22;13279;51.300;12.394;2023-02-01T11:06:27;6.50;1.00
25328;DHT22;13279;51.300;12.394;2023-02-01T11:08:57;6.70;1.00
25328;DHT22;13279;51.300;12.394;2023-02-01T11:11:25;6.80;1.00
25328;DHT22;13279;51.300;12.394;2023-02-01T11:13:58;7.10;1.00
25328;DHT22;13279;51.300;12.394;2023-02-01T11:16:34;7.30;1.00
25328;DHT22;13279;51.300;12.394;2023-02-01T11:19:03;7.40;1.00
25328;DHT22;13279;51.300;12.394;2023-02-01T11:21:33;7.50;1.00
25328;DHT22;13279;51.300;12.394;2023-02-01T11:24:02;7.50;1.00
25328;DHT22;13279;51.300;12.394;2023-02-01T11:26:30;7.40;1.00
25328;DHT22;13279;51.300;12.394;2023-02-01T11:29:00;7.40;1.00
25328;DHT22;13279;51.300;12.394;2023-02-01T11:31:29;7.30;1.00
25328;DHT22;13279;51.300;12.394;2023-02-01T11:34:00;7.30;1.00
25328;DHT22;13279;51.300;12.394;2023-02-01T11:36:34;7.30;1.00
25328;DHT22;13279;51.300;12.394;2023-02-01T11:39:21;7.40;1.00
25328;DHT22;13279;51.300;12.394;2023-02-01T11:42:01;7.40;1.00
25328;DHT22;13279;51.300;12.394;2023-02-01T11:44:33;7.50;1.00
25328;DHT22;13279;51.300;12.394;2023-02-01T11:47:23;7.70;1.00
25328;DHT22;13279;51.300;12.394;2023-02-01T11:49:52;7.70;1.00
25328;DHT22;13279;51.300;12.394;2023-02-01T11:52:40;7.60;99.90
25328;DHT22;13279;51.300;12.394;2023-02-01T11:55:24;7.60;99.90
25328;DHT22;13279;51.300;12.394;2023-02-01T11:58:06;7.60;1.00
25328;DHT22;13279;51.300;12.394;2023-02-01T12:00:56;7.60;1.00
25328;DHT22;13279;51.300;12.394;2023-02-01T12:03:40;7.70;1.00
25328;DHT22;13279;51.300;12.394;2023-02-01T12:06:18;7.60;99.90
25328;DHT22;13279;51.300;12.394;2023-02-01T12:11:58;7.50;1.00
25328;DHT22;13279;51.300;12.394;2023-02-01T12:14:40;7.40;1.00
25328;DHT22;13279;51.300;12.394;2023-02-01T12:17:25;7.40;1.00
25328;DHT22;13279;51.300;12.394;2023-02-01T12:20:19;7.40;1.00
25328;DHT22;13279;51.300;12.394;2023-02-01T12:22:59;7.40;99.90
25328;DHT22;13279;51.300;12.394;2023-02-01T12:25:38;7.40;1.00
25328;DHT22;13279;51.300;12.394;2023-02-01T12:28:36;7.40;99.90
25328;DHT22;13279;51.300;12.394;2023-02-01T12:31:30;7.40;99.90
25328;DHT22;13279;51.300;12.394;2023-02-01T12:34:20;7.50;88.70
25328;DHT22;13279;51.300;12.394;2023-02-01T12:36:59;7.50;99.90
25328;DHT22;13279;51.300;12.394;2023-02-01T12:39:38;7.50;38.00
25328;DHT22;13279;51.300;12.394;2023-02-01T12:42:13;7.50;1.00
25328;DHT22;13279;51.300;12.394;2023-02-01T12:44:47;7.60;1.00
25328;DHT22;13279;51.300;12.394;2023-02-01T12:47:21;7.60;1.00
25328;DHT22;13279;51.300;12.394;2023-02-01T12:49:55;7.60;1.00
25328;DHT22;13279;51.300;12.394;2023-02-01T12:52:30;7.60;1.00
25328;DHT22;13279;51.300;12.394;2023-02-01T12:55:07;7.60;1.00
25328;DHT22;13279;51.300;12.394;2023-02-01T12:57:40;7.60;1.00
25328;DHT22;13279;51.300;12.394;2023-02-01T13:00:17;7.70;99.90
25328;DHT22;13279;51.300;12.394;2023-02-01T13:02:54;7.70;99.90
25328;DHT22;13279;51.300;12.394;2023-02-01T13:05:33;7.70;99.90
25328;DHT22;13279;51.300;12.394;2023-02-01T13:08:07;7.60;99.90
25328;DHT22;13279;51.300;12.394;2023-02-01T13:10:38;7.60;1.10
25328;DHT22;13279;51.300;12.394;2023-02-01T13:13:14;7.50;1.00
25328;DHT22;13279;51.300;12.394;2023-02-01T13:15:48;7.40;1.00
25328;DHT22;13279;51.300;12.394;2023-02-01T13:18:20;7.40;99.90
25328;DHT22;13279;51.300;12.394;2023-02-01T13:20:54;7.40;1.00
25328;DHT22;13279;51.300;12.394;2023-02-01T13:23:26;7.40;1.00
25328;DHT22;13279;51.300;12.394;2023-02-01T13:25:55;7.40;1.00
25328;DHT22;13279;51.300;12.394;2023-02-01T13:28:29;7.30;1.00
25328;DHT22;13279;51.300;12.394;2023-02-01T13:31:10;7.40;1.00
25328;DHT22;13279;51.300;12.394;2023-02-01T13:33:56;7.40;1.00
25328;DHT22;13279;51.300;12.394;2023-02-01T13:36:53;7.30;1.00
25328;DHT22;13279;51.300;12.394;2023-02-01T13:39:45;7.30;1.00
25328;DHT22;13279;51.300;12.394;2023-02-01T13:42:18;7.30;23.10
25328;DHT22;13279;51.300;12.394;2023-02-01T13:44:51;7.20;99.90
25328;DHT22;13279;51.300;12.394;2023-02-01T13:47:27;7.20;99.90
25328;DHT22;13279;51.300;12.394;2023-02-01T13:49:57;7.20;1.00
25328;DHT22;13279;51.300;12.394;2023-02-01T13:52:36;7.20;1.00
25328;DHT22;13279;51.300;12.394;2023-02-01T13:55:22;7.20;1.00
25328;DHT22;13279;51.300;12.394;2023-02-01T13:57:59;7.20;99.90
25328;DHT22;13279;51.300;12.394;2023-02-01T14:00:30;7.20;99.90
25328;DHT22;13279;51.300;12.394;2023-02-01T14:03:14;7.20;99.90
25328;DHT22;13279;51.300;12.394;2023-02-01T14:06:14;7.30;99.90
25328;DHT22;13279;51.300;12.394;2023-02-01T14:08:45;7.20;99.90
25328;DHT22;13279;51.300;12.394;2023-02-01T14:11:39;7.20;99.90
25328;DHT22;13279;51.300;12.394;2023-02-01T14:17:41;7.10;1.00
25328;DHT22;13279;51.300;12.394;2023-02-01T14:23:09;7.10;1.00
25328;DHT22;13279;51.300;12.394;2023-02-01T14:25:39;7.10;1.00
25328;DHT22;13279;51.300;12.394;2023-02-01T14:28:12;7.10;1.00
25328;DHT22;13279;51.300;12.394;2023-02-01T14:30:42;7.10;1.00
25328;DHT22;13279;51.300;12.394;2023-02-01T14:33:21;7.10;1.00
25328;DHT22;13279;51.300;12.394;2023-02-01T14:36:04;7.10;1.00
25328;DHT22;13279;51.300;12.394;2023-02-01T14:38:35;7.20;1.00
25328;DHT22;13279;51.300;12.394;2023-02-01T14:41:31;7.20;99.90
25328;DHT22;13279;51.300;12.394;2023-02-01T14:44:25;7.60;99.90
25328;DHT22;13279;51.300;12.394;2023-02-01T14:47:29;7.90;99.90
25328;DHT22;13279;51.300;12.394;2023-02-01T14:50:27;7.80;4.30
25328;DHT22;13279;51.300;12.394;2023-02-01T14:53:17;7.60;99.90
25328;DHT22;13279;51.300;12.394;2023-02-01T14:55:50;7.50;99.90
25328;DHT22;13279;51.300;12.394;2023-02-01T14:58:31;7.30;99.90
25328;DHT22;13279;51.300;12.394;2023-02-01T15:01:02;7.30;99.90
25328;DHT22;13279;51.300;12.394;2023-02-01T15:03:53;7.20;99.90
25328;DHT22;13279;51.300;12.394;2023-02-01T15:06:27;7.10;99.90
25328;DHT22;13279;51.300;12.394;2023-02-01T15:08:59;7.00;99.90
25328;DHT22;13279;51.300;12.394;2023-02-01T15:11:28;7.00;1.00
25328;DHT22;13279;51.300;12.394;2023-02-01T15:13:56;6.90;1.00
25328;DHT22;13279;51.300;12.394;2023-02-01T15:16:26;6.70;1.00
25328;DHT22;13279;51.300;12.394;2023-02-01T15:19:11;6.60;1.00
25328;DHT22;13279;51.300;12.394;2023-02-01T15:21:47;6.50;1.00
25328;DHT22;13279;51.300;12.394;2023-02-01T15:24:20;6.50;1.00
25328;DHT22;13279;51.300;12.394;2023-02-01T15:26:49;6.50;1.00
25328;DHT22;13279;51.300;12.394;2023-02-01T15:29:18;6.40;1.00
25328;DHT22;13279;51.300;12.394;2023-02-01T15:31:48;6.30;1.00
25328;DHT22;13279;51.300;12.394;2023-02-01T15:34:16;6.30;1.00
25328;DHT22;13279;51.300;12.394;2023-02-01T15:36:46;6.20;1.00
25328;DHT22;13279;51.300;12.394;2023-02-01T15:39:21;6.10;1.00
25328;DHT22;13279;51.300;12.394;2023-02-01T15:41:54;6.00;1.00
25328;DHT22;13279;51.300;12.394;2023-02-01T15:44:34;6.00;1.00
25328;DHT22;13279;51.300;12.394;2023-02-01T15:47:12;5.90;1.00
25328;DHT22;13279;51.300;12.394;2023-02-01T15:49:41;5.90;1.00
25328;DHT22;13279;51.300;12.394;2023-02-01T15:52:24;6.00;1.00
25328;DHT22;13279;51.300;12.394;2023-02-01T15:54:54;6.00;1.00
25328;DHT22;13279;51.300;12.394;2023-02-01T15:57:26;6.10;1.00
25328;DHT22;13279;51.300;12.394;2023-02-01T15:59:59;6.20;1.00
25328;DHT22;13279;51.300;12.394;2023-02-01T16:02:43;6.20;1.00
25328;DHT22;13279;51.300;12.394;2023-02-01T16:05:32;6.00;1.00
25328;DHT22;13279;51.300;12.394;2023-02-01T16:08:03;5.90;7.20
25328;DHT22;13279;51.300;12.394;2023-02-01T16:10:38;5.70;99.90
25328;DHT22;13279;51.300;12.394;2023-02-01T16:13:07;4.60;99.90
25328;DHT22;13279;51.300;12.394;2023-02-01T16:15:34;4.00;99.90
25328;DHT22;13279;51.300;12.394;2023-02-01T16:18:02;3.60;99.90
25328;DHT22;13279;51.300;12.394;2023-02-01T16:20:30;3.30;99.90